Kaharoa — ZM7552 — position and weather

sailwx.info

Track history (hours):
 
Tides and Currents Weather Stations Pressure Air Temp Water Temp Dewpoint Dewpoint Depression Visibility Wind Speed Wind Dir Waves Ship Positions

Oceanographic research ship Kaharoa (New Zealand)

Detailed information on ship capabilities available from University of Delaware's Ocean Information Center.

Last reported at 2019-Apr-18 01:15 UTC. Time now 2019-Apr-18 10:42 UTC.
Position S 41°16' E 173°17'.

Length 28 m; draft 3.5 m.

Type: Fishing. MMSI: 512063000.

Date/timePositionNaut miles runAvg speedWind from/ knotsBaromVisibWave heightAir tempDewpointWater temp
2019-Apr-18 01:15S 41°16' E 173°17'  
2019-Apr-15 17:19S 41°12' E 173°13'0 1.3
2019-Apr-15 17:00S 41°12' E 173°13'1 1.3
2019-Apr-15 16:30S 41°11' E 173°13'0 0.4
2019-Apr-15 16:01S 41°11' E 173°13'1 1.9
2019-Apr-15 15:31S 41°10' E 173°13'2 4.5
2019-Apr-15 15:00S 41°08' E 173°13'2 4.6
2019-Apr-15 14:30S 41°06' E 173°13'2 4.6
2019-Apr-15 14:00S 41°03' E 173°14'2 4.5
2019-Apr-15 13:30S 41°01' E 173°14'2 4.4
2019-Apr-15 13:00S 40°59' E 173°15'2 3.7
2019-Apr-15 12:31S 40°57' E 173°15'0 0.2
2019-Apr-15 12:01S 40°57' E 173°15'0 0.5
2019-Apr-15 11:30S 40°57' E 173°15'0 0.2
2019-Apr-15 11:01S 40°57' E 173°15'1 2.3
2019-Apr-15 10:30S 40°57' E 173°16'1 1.0
2019-Apr-15 10:01S 40°57' E 173°15'1 1.5
2019-Apr-15 09:30S 40°57' E 173°14'0 0.3
2019-Apr-15 09:01S 40°57' E 173°15'0 0.3
2019-Apr-15 08:31S 40°57' E 173°15'0 0.3
2019-Apr-15 08:00S 40°57' E 173°15'2 4.3
2019-Apr-15 07:30S 40°55' E 173°17'3 6.9
2019-Apr-15 07:01S 40°52' E 173°16'3 6.9
2019-Apr-15 06:31S 40°49' E 173°15'3 7.0
2019-Apr-15 06:01S 40°45' E 173°14'3 6.9
2019-Apr-15 05:31S 40°42' E 173°13'3 6.9
2019-Apr-15 05:01S 40°39' E 173°12'4 7.1
2019-Apr-15 04:31S 40°35' E 173°10'4 7.1
2019-Apr-15 04:00S 40°32' E 173°07'3 6.8
2019-Apr-15 03:30S 40°30' E 173°04'3 6.5
2019-Apr-15 03:00S 40°29' E 172°60'3 6.5
2019-Apr-15 02:30S 40°28' E 172°55'3 6.4
2019-Apr-15 02:00S 40°28' E 172°51'4 6.6
2019-Apr-15 01:23S 40°28' E 172°46'2 6.3
2019-Apr-15 01:00S 40°28' E 172°43'3 6.6
2019-Apr-15 00:30S 40°29' E 172°39'4 7.7
2019-Apr-15 00:00S 40°30' E 172°34'4 7.7
2019-Apr-14 23:31S 40°30' E 172°29'4 6.8
2019-Apr-14 22:56S 40°30' E 172°24'3 6.1
2019-Apr-14 22:30S 40°30' E 172°20'2 2.9
2019-Apr-14 21:52S 40°32' E 172°18'9 2.7
2019-Apr-14 18:27S 40°37' E 172°09'1 1.2
2019-Apr-14 17:41S 40°36' E 172°09'0 0.3
2019-Apr-14 17:17S 40°37' E 172°09'0 0.2
2019-Apr-14 15:30S 40°37' E 172°09'2 1.6
2019-Apr-14 14:09S 40°36' E 172°12'0 1.6
2019-Apr-14 13:59S 40°35' E 172°12'1 1.5
2019-Apr-14 13:20S 40°35' E 172°13'1 1.8
2019-Apr-14 13:00S 40°35' E 172°14'1 3.0
2019-Apr-14 12:30S 40°34' E 172°16'2 3.1
2019-Apr-14 11:59S 40°33' E 172°17'2 3.2
2019-Apr-14 11:20S 40°32' E 172°19'2 3.3
2019-Apr-14 10:50S 40°31' E 172°21'4 3.2
2019-Apr-14 09:32S 40°33' E 172°16'1 6.4
2019-Apr-14 09:22S 40°34' E 172°17'2 5.2
2019-Apr-14 09:00S 40°35' E 172°14'4 6.3
2019-Apr-14 08:22S 40°36' E 172°09'3 5.3
2019-Apr-14 07:51S 40°36' E 172°13'2 6.4
2019-Apr-14 07:30S 40°35' E 172°16'2 3.2
2019-Apr-14 06:59S 40°34' E 172°17'3 6.4
2019-Apr-14 06:27S 40°36' E 172°14'4 7.6
2019-Apr-14 05:57S 40°38' E 172°09'  
Track history (hours):
 
Tides and Currents Weather Stations Pressure Air Temp Water Temp Dewpoint Dewpoint Depression Visibility Wind Speed Wind Dir Waves Ship Positions

Oceanographic research ship Kaharoa (New Zealand)

Detailed information on ship capabilities available from University of Delaware's Ocean Information Center.

Last reported at 2019-Apr-18 01:15 UTC. Time now 2019-Apr-18 10:42 UTC.
Position S 41°16' E 173°17'.

Length 28 m; draft 3.5 m.

Type: Fishing. MMSI: 512063000.

Date/timePositionNaut miles runAvg speedWind from/ knotsBaromVisibWave heightAir tempDewpointWater temp
2019-Apr-18 01:15S 41°16' E 173°17'  
2019-Apr-15 17:19S 41°12' E 173°13'0 1.3
2019-Apr-15 17:00S 41°12' E 173°13'1 1.3
2019-Apr-15 16:30S 41°11' E 173°13'0 0.4
2019-Apr-15 16:01S 41°11' E 173°13'1 1.9
2019-Apr-15 15:31S 41°10' E 173°13'2 4.5
2019-Apr-15 15:00S 41°08' E 173°13'2 4.6
2019-Apr-15 14:30S 41°06' E 173°13'2 4.6
2019-Apr-15 14:00S 41°03' E 173°14'2 4.5
2019-Apr-15 13:30S 41°01' E 173°14'2 4.4
2019-Apr-15 13:00S 40°59' E 173°15'2 3.7
2019-Apr-15 12:31S 40°57' E 173°15'0 0.2
2019-Apr-15 12:01S 40°57' E 173°15'0 0.5
2019-Apr-15 11:30S 40°57' E 173°15'0 0.2
2019-Apr-15 11:01S 40°57' E 173°15'1 2.3
2019-Apr-15 10:30S 40°57' E 173°16'1 1.0
2019-Apr-15 10:01S 40°57' E 173°15'1 1.5
2019-Apr-15 09:30S 40°57' E 173°14'0 0.3
2019-Apr-15 09:01S 40°57' E 173°15'0 0.3
2019-Apr-15 08:31S 40°57' E 173°15'0 0.3
2019-Apr-15 08:00S 40°57' E 173°15'2 4.3
2019-Apr-15 07:30S 40°55' E 173°17'3 6.9
2019-Apr-15 07:01S 40°52' E 173°16'3 6.9
2019-Apr-15 06:31S 40°49' E 173°15'3 7.0
2019-Apr-15 06:01S 40°45' E 173°14'3 6.9
2019-Apr-15 05:31S 40°42' E 173°13'3 6.9
2019-Apr-15 05:01S 40°39' E 173°12'4 7.1
2019-Apr-15 04:31S 40°35' E 173°10'4 7.1
2019-Apr-15 04:00S 40°32' E 173°07'3 6.8
2019-Apr-15 03:30S 40°30' E 173°04'3 6.5
2019-Apr-15 03:00S 40°29' E 172°60'3 6.5
2019-Apr-15 02:30S 40°28' E 172°55'3 6.4
2019-Apr-15 02:00S 40°28' E 172°51'4 6.6
2019-Apr-15 01:23S 40°28' E 172°46'2 6.3
2019-Apr-15 01:00S 40°28' E 172°43'3 6.6
2019-Apr-15 00:30S 40°29' E 172°39'4 7.7
2019-Apr-15 00:00S 40°30' E 172°34'4 7.7
2019-Apr-14 23:31S 40°30' E 172°29'4 6.8
2019-Apr-14 22:56S 40°30' E 172°24'3 6.1
2019-Apr-14 22:30S 40°30' E 172°20'2 2.9
2019-Apr-14 21:52S 40°32' E 172°18'9 2.7
2019-Apr-14 18:27S 40°37' E 172°09'1 1.2
2019-Apr-14 17:41S 40°36' E 172°09'0 0.3
2019-Apr-14 17:17S 40°37' E 172°09'0 0.2
2019-Apr-14 15:30S 40°37' E 172°09'2 1.6
2019-Apr-14 14:09S 40°36' E 172°12'0 1.6
2019-Apr-14 13:59S 40°35' E 172°12'1 1.5
2019-Apr-14 13:20S 40°35' E 172°13'1 1.8
2019-Apr-14 13:00S 40°35' E 172°14'1 3.0
2019-Apr-14 12:30S 40°34' E 172°16'2 3.1
2019-Apr-14 11:59S 40°33' E 172°17'2 3.2
2019-Apr-14 11:20S 40°32' E 172°19'2 3.3
2019-Apr-14 10:50S 40°31' E 172°21'4 3.2
2019-Apr-14 09:32S 40°33' E 172°16'1 6.4
2019-Apr-14 09:22S 40°34' E 172°17'2 5.2
2019-Apr-14 09:00S 40°35' E 172°14'4 6.3
2019-Apr-14 08:22S 40°36' E 172°09'3 5.3
2019-Apr-14 07:51S 40°36' E 172°13'2 6.4
2019-Apr-14 07:30S 40°35' E 172°16'2 3.2
2019-Apr-14 06:59S 40°34' E 172°17'3 6.4
2019-Apr-14 06:27S 40°36' E 172°14'4 7.6
2019-Apr-14 05:57S 40°38' E 172°09'  

Dump ship's entire track history